Time;durP1;ratioP1;P1;durP2;ratioP2;P2;SDS_P1;SDS_P2;PMS_P1;PMS_P2;Temp;Humidity;BMP_temperature;BMP_pressure;BME280_temperature;BME280_humidity;BME280_pressure;Samples;Min_cycle;Max_cycle;Signal;HPM_P1;HPM_P2
2021/10/12 00:01:16;;;;;;;5.20;1.90;;;;;;;;;;4922250;29;20042;-82
2021/10/12 00:03:41;;;;;;;5.43;1.95;;;;;;;;;;4925835;29;20093;-85
2021/10/12 00:06:07;;;;;;;7.82;2.17;;;;;;;;;;4905324;29;20031;-84
2021/10/12 00:08:33;;;;;;;5.97;1.90;;;;;;;;;;4932544;29;20470;-85
2021/10/12 00:10:59;;;;;;;5.97;1.95;;;;;;;;;;4930686;29;20045;-85
2021/10/12 00:13:25;;;;;;;4.47;1.85;;;;;;;;;;4933761;29;20040;-82
2021/10/12 00:15:51;;;;;;;7.40;1.88;;;;;;;;;;4889679;29;20049;-84
2021/10/12 00:18:16;;;;;;;6.40;1.85;;;;;;;;;;4909515;29;20394;-83
2021/10/12 00:20:42;;;;;;;8.25;1.80;;;;;;;;;;4911936;29;20095;-82
2021/10/12 00:23:08;;;;;;;5.03;1.60;;;;;;;;;;4909643;29;20380;-84
2021/10/12 00:25:33;;;;;;;6.65;1.70;;;;;;;;;;4923170;29;20036;-82
2021/10/12 00:27:59;;;;;;;9.23;2.10;;;;;;;;;;4923224;29;20095;-83
2021/10/12 00:30:25;;;;;;;6.00;2.13;;;;;;;;;;4932443;29;20118;-82
2021/10/12 00:32:51;;;;;;;6.53;1.70;;;;;;;;;;4917916;29;20087;-85
2021/10/12 00:35:16;;;;;;;6.05;1.77;;;;;;;;;;4933702;29;20046;-82
2021/10/12 00:37:42;;;;;;;8.27;1.90;;;;;;;;;;4929469;29;20051;-84
2021/10/12 00:40:08;;;;;;;5.43;1.60;;;;;;;;;;4931766;29;20041;-81
2021/10/12 00:42:34;;;;;;;5.50;1.90;;;;;;;;;;4923424;29;20038;-83
2021/10/12 00:45:03;;;;;;;5.90;1.60;;;;;;;;;;4930596;29;20402;-85
2021/10/12 00:47:29;;;;;;;6.28;1.65;;;;;;;;;;4935086;29;20059;-83
2021/10/12 00:49:55;;;;;;;9.63;1.90;;;;;;;;;;4923713;29;20063;-81
2021/10/12 00:52:20;;;;;;;5.60;1.70;;;;;;;;;;4921642;29;20096;-82
2021/10/12 00:54:46;;;;;;;7.32;1.70;;;;;;;;;;4911117;29;20059;-82
2021/10/12 00:57:12;;;;;;;7.53;1.83;;;;;;;;;;4896127;29;20027;-84
2021/10/12 00:59:40;;;;;;;4.68;1.70;;;;;;;;;;4907049;29;20507;-85
2021/10/12 01:02:07;;;;;;;6.05;1.67;;;;;;;;;;4922024;29;20032;-82
2021/10/12 01:04:33;;;;;;;6.28;1.73;;;;;;;;;;4923194;29;20062;-82
2021/10/12 01:06:59;;;;;;;7.25;2.03;;;;;;;;;;4902213;29;20036;-82
2021/10/12 01:09:25;;;;;;;6.05;1.80;;;;;;;;;;4921710;29;20046;-81
2021/10/12 01:11:50;;;;;;;7.85;1.90;;;;;;;;;;4936433;29;20044;-82
2021/10/12 01:14:16;;;;;;;7.85;1.90;;;;;;;;;;4911328;29;20035;-82
2021/10/12 01:16:42;;;;;;;6.80;1.65;;;;;;;;;;4937812;29;20035;-83
2021/10/12 01:19:09;;;;;;;5.93;1.88;;;;;;;;;;4932090;29;20043;-82
2021/10/12 01:21:48;;;;;;;6.82;1.95;;;;;;;;;;4909339;29;20102;-83
2021/10/12 01:24:16;;;;;;;11.15;3.03;;;;;;;;;;4921399;29;20032;-82
2021/10/12 01:26:42;;;;;;;7.50;1.83;;;;;;;;;;4943450;29;20050;-83
2021/10/12 01:29:10;;;;;;;8.23;2.35;;;;;;;;;;4919340;29;20031;-83
2021/10/12 01:31:36;;;;;;;5.53;1.83;;;;;;;;;;4936463;29;20054;-82
2021/10/12 01:34:10;;;;;;;5.72;1.80;;;;;;;;;;4936373;29;20031;-83
2021/10/12 01:36:36;;;;;;;7.60;1.95;;;;;;;;;;4934798;29;20040;-81
2021/10/12 01:39:02;;;;;;;10.48;1.65;;;;;;;;;;4916722;29;20119;-82
2021/10/12 01:41:27;;;;;;;5.32;1.80;;;;;;;;;;4936333;29;20035;-84
2021/10/12 01:43:53;;;;;;;6.20;1.50;;;;;;;;;;4920979;29;20267;-82
2021/10/12 01:46:18;;;;;;;7.53;1.70;;;;;;;;;;4916060;29;20032;-83
2021/10/12 01:48:44;;;;;;;6.25;1.50;;;;;;;;;;4900075;29;20032;-85
2021/10/12 01:51:09;;;;;;;6.00;1.42;;;;;;;;;;4901152;29;20042;-83
2021/10/12 01:53:35;;;;;;;4.72;1.40;;;;;;;;;;4923809;29;20098;-85
2021/10/12 01:56:02;;;;;;;5.22;1.30;;;;;;;;;;4901866;29;20036;-82
2021/10/12 01:58:28;;;;;;;6.07;1.70;;;;;;;;;;4919207;29;20040;-82
2021/10/12 02:00:54;;;;;;;10.48;2.00;;;;;;;;;;4940791;29;20046;-84
2021/10/12 02:03:20;;;;;;;6.53;1.83;;;;;;;;;;4929898;29;20691;-82
2021/10/12 02:05:45;;;;;;;5.50;1.90;;;;;;;;;;4928262;29;20035;-82
2021/10/12 02:08:11;;;;;;;5.93;2.35;;;;;;;;;;4924179;29;20076;-82
2021/10/12 02:10:36;;;;;;;6.95;2.72;;;;;;;;;;4913447;29;20043;-82
2021/10/12 02:13:02;;;;;;;6.50;2.40;;;;;;;;;;4908818;29;20122;-84
2021/10/12 02:15:28;;;;;;;10.30;2.70;;;;;;;;;;4929782;29;20039;-82
2021/10/12 02:17:53;;;;;;;11.55;2.60;;;;;;;;;;4916467;29;20094;-82
2021/10/12 02:20:19;;;;;;;7.15;2.30;;;;;;;;;;4901666;29;20395;-82
2021/10/12 02:22:44;;;;;;;9.57;2.38;;;;;;;;;;4930885;29;20028;-82
2021/10/12 02:25:11;;;;;;;9.48;2.70;;;;;;;;;;4916383;29;20040;-82
2021/10/12 02:27:37;;;;;;;8.98;2.38;;;;;;;;;;4931350;29;20042;-82
2021/10/12 02:30:04;;;;;;;7.20;2.20;;;;;;;;;;4923306;29;20036;-81
2021/10/12 02:32:30;;;;;;;5.63;1.88;;;;;;;;;;4915541;29;20390;-82
2021/10/12 02:34:55;;;;;;;7.88;1.90;;;;;;;;;;4916047;29;20046;-82
2021/10/12 02:37:21;;;;;;;6.40;1.95;;;;;;;;;;4914947;29;20035;-82
2021/10/12 02:39:47;;;;;;;5.60;1.83;;;;;;;;;;4895784;29;20054;-83
2021/10/12 02:42:12;;;;;;;7.07;2.08;;;;;;;;;;4915950;29;20139;-81
2021/10/12 02:44:38;;;;;;;6.43;1.98;;;;;;;;;;4914523;29;20039;-85
2021/10/12 02:47:03;;;;;;;8.38;1.98;;;;;;;;;;4923195;29;20036;-82
2021/10/12 02:49:29;;;;;;;7.43;2.00;;;;;;;;;;4917748;29;20036;-83
2021/10/12 02:51:55;;;;;;;7.32;2.00;;;;;;;;;;4927683;29;20038;-83
2021/10/12 02:54:21;;;;;;;8.23;2.00;;;;;;;;;;4913626;29;20047;-82
2021/10/12 02:56:46;;;;;;;5.85;1.77;;;;;;;;;;4910611;29;20039;-84
2021/10/12 02:59:13;;;;;;;6.95;1.80;;;;;;;;;;4928422;29;20027;-82
2021/10/12 03:01:38;;;;;;;9.10;1.75;;;;;;;;;;4932824;29;20035;-84
2021/10/12 03:04:04;;;;;;;10.68;1.40;;;;;;;;;;4934542;29;20042;-85
2021/10/12 03:06:30;;;;;;;7.85;1.48;;;;;;;;;;4915996;29;20036;-85
2021/10/12 03:08:55;;;;;;;5.78;1.50;;;;;;;;;;4923239;29;20032;-81
2021/10/12 03:11:20;;;;;;;5.72;2.10;;;;;;;;;;4926461;29;20091;-82
2021/10/12 03:13:46;;;;;;;7.72;1.30;;;;;;;;;;4923605;29;20131;-85
2021/10/12 03:16:11;;;;;;;7.65;1.45;;;;;;;;;;4936294;29;20032;-81
2021/10/12 03:18:38;;;;;;;6.20;0.95;;;;;;;;;;4929934;29;20032;-84
2021/10/12 03:21:04;;;;;;;6.75;1.20;;;;;;;;;;4901897;29;20066;-82
2021/10/12 03:23:29;;;;;;;5.93;1.10;;;;;;;;;;4909655;29;20039;-81
2021/10/12 03:25:55;;;;;;;5.97;1.13;;;;;;;;;;4936183;29;20024;-83
2021/10/12 03:28:21;;;;;;;5.32;1.20;;;;;;;;;;4926956;29;21787;-85
2021/10/12 03:30:46;;;;;;;4.47;1.02;;;;;;;;;;4919329;29;20074;-83
2021/10/12 03:33:14;;;;;;;6.40;1.00;;;;;;;;;;4928634;29;20036;-82
2021/10/12 03:35:46;;;;;;;5.38;1.10;;;;;;;;;;4922149;29;20032;-82
2021/10/12 03:38:11;;;;;;;6.00;1.20;;;;;;;;;;4921889;29;20156;-82
2021/10/12 03:40:36;;;;;;;6.72;1.52;;;;;;;;;;4924929;29;20695;-84
2021/10/12 03:43:02;;;;;;;3.97;1.30;;;;;;;;;;4936366;29;20039;-85
2021/10/12 03:45:27;;;;;;;6.07;1.42;;;;;;;;;;4918156;29;20050;-83
2021/10/12 03:47:53;;;;;;;6.15;1.33;;;;;;;;;;4928779;29;20056;-82
2021/10/12 03:50:18;;;;;;;7.05;1.60;;;;;;;;;;4906848;29;20031;-81
2021/10/12 03:52:44;;;;;;;6.30;1.65;;;;;;;;;;4904322;29;20051;-85
2021/10/12 03:55:10;;;;;;;6.50;1.67;;;;;;;;;;4904234;29;20052;-83
2021/10/12 03:57:35;;;;;;;10.43;2.47;;;;;;;;;;4936169;29;20040;-83
2021/10/12 04:00:03;;;;;;;6.63;1.65;;;;;;;;;;4920122;29;20080;-85
2021/10/12 04:02:28;;;;;;;7.90;1.40;;;;;;;;;;4929433;29;20039;-82
2021/10/12 04:04:54;;;;;;;4.65;1.45;;;;;;;;;;4918185;29;20042;-83
2021/10/12 04:07:19;;;;;;;6.15;1.55;;;;;;;;;;4933853;29;20067;-83
2021/10/12 04:09:45;;;;;;;4.45;1.30;;;;;;;;;;4937336;29;20042;-84
2021/10/12 04:12:10;;;;;;;6.85;1.33;;;;;;;;;;4931612;29;20043;-81
2021/10/12 04:14:35;;;;;;;7.25;1.40;;;;;;;;;;4910074;29;20444;-82
2021/10/12 04:17:01;;;;;;;6.53;1.30;;;;;;;;;;4935668;29;20031;-83
2021/10/12 04:19:26;;;;;;;5.75;1.92;;;;;;;;;;4917305;29;20130;-83
2021/10/12 04:21:52;;;;;;;6.30;1.40;;;;;;;;;;4927944;29;20047;-82
2021/10/12 04:24:17;;;;;;;7.95;1.85;;;;;;;;;;4896519;29;20036;-81
2021/10/12 04:26:43;;;;;;;6.38;1.80;;;;;;;;;;4915241;29;20494;-82
2021/10/12 04:29:08;;;;;;;5.80;1.73;;;;;;;;;;4914620;29;20035;-82
2021/10/12 04:31:34;;;;;;;6.55;1.77;;;;;;;;;;4928752;29;20476;-82
2021/10/12 04:34:00;;;;;;;3.83;1.60;;;;;;;;;;4915835;29;20036;-81
2021/10/12 04:36:25;;;;;;;5.22;1.73;;;;;;;;;;4935214;29;20095;-83
2021/10/12 04:38:51;;;;;;;4.22;1.60;;;;;;;;;;4913336;29;20098;-81
2021/10/12 04:41:16;;;;;;;7.10;2.58;;;;;;;;;;4926816;29;20040;-82
2021/10/12 04:43:42;;;;;;;5.78;2.00;;;;;;;;;;4926785;29;20118;-82
2021/10/12 04:46:07;;;;;;;7.00;2.05;;;;;;;;;;4931388;29;20036;-83
2021/10/12 04:48:34;;;;;;;7.57;2.40;;;;;;;;;;4914260;29;20444;-83
2021/10/12 04:50:59;;;;;;;7.15;2.33;;;;;;;;;;4935385;29;20035;-82
2021/10/12 04:53:25;;;;;;;6.93;2.53;;;;;;;;;;4925892;29;20047;-83
2021/10/12 04:55:51;;;;;;;7.82;2.60;;;;;;;;;;4930610;29;20068;-81
2021/10/12 04:58:17;;;;;;;5.72;2.08;;;;;;;;;;4918588;29;21800;-81
2021/10/12 05:00:43;;;;;;;10.10;2.70;;;;;;;;;;4934531;29;20039;-85
2021/10/12 05:03:08;;;;;;;10.90;3.15;;;;;;;;;;4923190;29;20364;-82
2021/10/12 05:05:34;;;;;;;6.13;2.28;;;;;;;;;;4929078;29;20042;-81
2021/10/12 05:07:59;;;;;;;5.45;2.30;;;;;;;;;;4942128;29;20035;-83
2021/10/12 05:10:25;;;;;;;5.72;2.17;;;;;;;;;;4929781;29;20046;-83
2021/10/12 05:12:51;;;;;;;5.55;2.08;;;;;;;;;;4927152;29;20598;-82
2021/10/12 05:15:27;;;;;;;5.38;2.47;;;;;;;;;;4917930;29;20028;-82
2021/10/12 05:17:53;;;;;;;6.72;2.70;;;;;;;;;;4928310;29;20483;-83
2021/10/12 05:20:19;;;;;;;7.10;2.60;;;;;;;;;;4928907;29;20042;-82
2021/10/12 05:22:45;;;;;;;8.35;2.67;;;;;;;;;;4932944;29;20098;-81
2021/10/12 05:25:11;;;;;;;8.10;2.90;;;;;;;;;;4933021;29;20032;-82
2021/10/12 05:27:37;;;;;;;6.30;2.88;;;;;;;;;;4922516;29;20042;-84
2021/10/12 05:30:08;;;;;;;7.90;3.13;;;;;;;;;;4926676;29;20042;-82
2021/10/12 05:32:37;;;;;;;7.05;2.80;;;;;;;;;;4919245;29;20121;-84
2021/10/12 05:35:05;;;;;;;8.70;3.38;;;;;;;;;;4906682;29;20035;-82
2021/10/12 05:37:31;;;;;;;9.05;3.40;;;;;;;;;;4935697;29;20024;-83
2021/10/12 05:39:56;;;;;;;6.50;3.30;;;;;;;;;;4916084;29;20032;-84
2021/10/12 05:42:22;;;;;;;9.48;3.38;;;;;;;;;;4928227;29;20042;-82
2021/10/12 05:44:47;;;;;;;7.45;3.17;;;;;;;;;;4915752;29;20742;-82
2021/10/12 05:47:13;;;;;;;8.02;3.50;;;;;;;;;;4921795;29;20067;-85
2021/10/12 05:49:40;;;;;;;7.25;3.47;;;;;;;;;;4927193;29;20040;-83
2021/10/12 05:52:05;;;;;;;10.85;3.78;;;;;;;;;;4931702;29;20064;-83
2021/10/12 05:54:33;;;;;;;8.60;3.35;;;;;;;;;;4892853;29;20088;-82
2021/10/12 05:57:05;;;;;;;8.20;3.42;;;;;;;;;;4932240;29;20027;-82
2021/10/12 05:59:34;;;;;;;10.65;3.70;;;;;;;;;;4932722;29;20035;-85
2021/10/12 06:02:00;;;;;;;9.82;4.15;;;;;;;;;;4928362;29;20102;-85
2021/10/12 06:04:26;;;;;;;11.27;4.45;;;;;;;;;;4942291;29;20058;-81
2021/10/12 06:06:52;;;;;;;9.50;4.32;;;;;;;;;;4934206;29;20111;-83
2021/10/12 06:09:18;;;;;;;8.38;3.72;;;;;;;;;;4924013;29;20463;-82
2021/10/12 06:11:43;;;;;;;8.80;4.00;;;;;;;;;;4933434;29;20093;-83
2021/10/12 06:14:09;;;;;;;10.27;4.03;;;;;;;;;;4910154;29;20096;-85
2021/10/12 06:16:34;;;;;;;10.73;4.55;;;;;;;;;;4905015;29;20044;-82
2021/10/12 06:19:00;;;;;;;7.05;4.20;;;;;;;;;;4901841;29;20024;-82
2021/10/12 06:21:26;;;;;;;7.57;4.22;;;;;;;;;;4935234;29;20028;-85
2021/10/12 06:23:51;;;;;;;9.90;4.13;;;;;;;;;;4920897;29;20059;-83
2021/10/12 06:26:17;;;;;;;9.52;5.53;;;;;;;;;;4889340;29;20031;-85
2021/10/12 06:28:42;;;;;;;10.55;5.65;;;;;;;;;;4916177;29;20380;-82
2021/10/12 06:31:08;;;;;;;9.48;4.60;;;;;;;;;;4919779;29;20087;-82
2021/10/12 06:33:34;;;;;;;9.77;4.32;;;;;;;;;;4936810;29;20087;-81
2021/10/12 06:35:59;;;;;;;7.30;4.38;;;;;;;;;;4907056;29;20038;-82
2021/10/12 06:38:25;;;;;;;9.80;4.65;;;;;;;;;;4914380;29;20028;-81
2021/10/12 06:40:51;;;;;;;9.23;5.30;;;;;;;;;;4935504;29;20440;-83
2021/10/12 06:43:16;;;;;;;8.63;4.95;;;;;;;;;;4940258;29;20134;-85
2021/10/12 06:45:41;;;;;;;8.23;4.88;;;;;;;;;;4921044;29;20023;-82
2021/10/12 06:48:07;;;;;;;9.10;4.55;;;;;;;;;;4919103;29;20035;-82
2021/10/12 06:50:33;;;;;;;11.20;5.05;;;;;;;;;;4901975;29;20027;-83
2021/10/12 06:52:58;;;;;;;13.98;5.05;;;;;;;;;;4934436;29;20845;-82
2021/10/12 06:55:25;;;;;;;8.60;4.93;;;;;;;;;;4928617;29;20060;-83
2021/10/12 06:57:50;;;;;;;10.23;5.03;;;;;;;;;;4912404;29;20036;-82
2021/10/12 07:00:17;;;;;;;11.13;5.55;;;;;;;;;;4928901;29;20031;-83
2021/10/12 07:02:43;;;;;;;8.38;4.93;;;;;;;;;;4906414;29;20071;-83
2021/10/12 07:05:10;;;;;;;9.60;5.40;;;;;;;;;;4934509;29;20023;-85
2021/10/12 07:07:36;;;;;;;8.75;5.18;;;;;;;;;;4921381;29;20035;-83
2021/10/12 07:10:03;;;;;;;13.20;5.68;;;;;;;;;;4940419;29;20024;-83
2021/10/12 07:12:29;;;;;;;8.93;4.68;;;;;;;;;;4939022;29;20042;-82
2021/10/12 07:14:54;;;;;;;9.35;5.05;;;;;;;;;;4937878;29;20039;-82
2021/10/12 07:17:19;;;;;;;10.50;5.13;;;;;;;;;;4902629;29;20575;-85
2021/10/12 07:19:45;;;;;;;11.73;5.50;;;;;;;;;;4919351;29;20091;-83
2021/10/12 07:22:10;;;;;;;9.30;5.40;;;;;;;;;;4920572;29;20028;-85
2021/10/12 07:24:36;;;;;;;10.07;5.80;;;;;;;;;;4941980;29;20144;-82
2021/10/12 07:27:02;;;;;;;11.98;6.22;;;;;;;;;;4943018;29;20035;-82
2021/10/12 07:29:27;;;;;;;9.52;6.03;;;;;;;;;;4921892;29;20064;-81
2021/10/12 07:31:52;;;;;;;11.88;6.15;;;;;;;;;;4924326;29;20039;-82
2021/10/12 07:34:18;;;;;;;9.25;5.85;;;;;;;;;;4928261;29;20032;-82
2021/10/12 07:36:43;;;;;;;8.80;5.32;;;;;;;;;;4921188;29;20039;-83
2021/10/12 07:39:09;;;;;;;9.82;5.50;;;;;;;;;;4922180;29;20483;-85
2021/10/12 07:41:36;;;;;;;10.02;5.32;;;;;;;;;;4937983;29;20039;-81
2021/10/12 07:44:02;;;;;;;7.97;4.75;;;;;;;;;;4934662;29;20034;-82
2021/10/12 07:46:28;;;;;;;11.63;5.07;;;;;;;;;;4935440;29;20044;-85
2021/10/12 07:48:58;;;;;;;10.90;5.10;;;;;;;;;;4938676;29;20020;-81
2021/10/12 07:51:23;;;;;;;13.02;5.53;;;;;;;;;;4923707;29;20454;-84
2021/10/12 07:53:50;;;;;;;10.88;4.82;;;;;;;;;;4913573;29;20051;-82
2021/10/12 07:56:35;;;;;;;10.00;5.25;;;;;;;;;;4905842;29;20118;-82
2021/10/12 07:59:01;;;;;;;8.18;4.75;;;;;;;;;;4910285;29;20058;-82
2021/10/12 08:01:27;;;;;;;10.55;4.78;;;;;;;;;;4923064;29;20032;-83
2021/10/12 08:03:52;;;;;;;9.75;4.78;;;;;;;;;;4941604;29;20027;-82
2021/10/12 08:06:17;;;;;;;8.38;4.53;;;;;;;;;;4935157;29;20036;-85
2021/10/12 08:08:43;;;;;;;10.20;4.88;;;;;;;;;;4922202;29;20179;-82
2021/10/12 08:11:08;;;;;;;13.35;5.38;;;;;;;;;;4920571;29;20047;-82
2021/10/12 08:13:35;;;;;;;9.35;4.60;;;;;;;;;;4934593;29;20086;-83
2021/10/12 08:16:08;;;;;;;11.63;4.28;;;;;;;;;;4921538;29;20122;-84
2021/10/12 08:18:34;;;;;;;10.70;4.43;;;;;;;;;;4904444;29;20047;-82
2021/10/12 08:21:00;;;;;;;11.88;4.18;;;;;;;;;;4906073;29;20122;-83
2021/10/12 08:23:25;;;;;;;12.85;4.47;;;;;;;;;;4920641;29;20023;-84
2021/10/12 08:25:51;;;;;;;13.10;4.32;;;;;;;;;;4942686;29;20832;-82
2021/10/12 08:28:16;;;;;;;10.95;4.22;;;;;;;;;;4903250;29;20043;-82
2021/10/12 08:30:42;;;;;;;12.68;4.60;;;;;;;;;;4922265;29;20035;-82
2021/10/12 08:33:07;;;;;;;11.27;4.13;;;;;;;;;;4935354;29;20399;-82
2021/10/12 08:35:33;;;;;;;12.88;4.25;;;;;;;;;;4921395;29;20550;-82
2021/10/12 08:37:58;;;;;;;10.23;3.92;;;;;;;;;;4921583;29;20028;-83
2021/10/12 08:40:24;;;;;;;12.32;5.13;;;;;;;;;;4911536;29;20042;-82
2021/10/12 08:42:51;;;;;;;9.43;4.30;;;;;;;;;;4921478;29;20505;-82
2021/10/12 08:45:20;;;;;;;14.02;3.88;;;;;;;;;;4929510;29;20050;-83
2021/10/12 08:47:46;;;;;;;9.25;4.40;;;;;;;;;;4937837;29;20028;-82
2021/10/12 08:50:19;;;;;;;10.68;3.75;;;;;;;;;;4938926;29;20040;-82
2021/10/12 08:52:45;;;;;;;10.25;3.47;;;;;;;;;;4909312;29;20035;-83
2021/10/12 08:55:11;;;;;;;12.38;3.55;;;;;;;;;;4915547;29;20059;-82
2021/10/12 08:57:38;;;;;;;12.82;4.05;;;;;;;;;;4922679;29;20027;-84
2021/10/12 09:00:08;;;;;;;12.73;3.50;;;;;;;;;;4940099;29;20031;-82
2021/10/12 09:02:53;;;;;;;7.32;3.08;;;;;;;;;;4920377;29;20060;-83
2021/10/12 09:05:25;;;;;;;10.57;3.10;;;;;;;;;;4930990;29;20027;-81
2021/10/12 09:07:52;;;;;;;11.47;2.90;;;;;;;;;;4941899;29;20114;-81
2021/10/12 09:10:21;;;;;;;9.30;2.90;;;;;;;;;;4922206;29;20277;-85
2021/10/12 09:12:48;;;;;;;11.30;2.67;;;;;;;;;;4905715;29;20042;-85
2021/10/12 09:15:15;;;;;;;7.72;3.30;;;;;;;;;;4922625;29;20062;-82
2021/10/12 09:17:42;;;;;;;9.38;3.45;;;;;;;;;;4904640;29;20032;-83
2021/10/12 09:20:11;;;;;;;9.18;2.72;;;;;;;;;;4932182;29;20399;-85
2021/10/12 09:22:38;;;;;;;7.55;2.83;;;;;;;;;;4938217;29;20027;-82
2021/10/12 09:25:16;;;;;;;11.05;3.03;;;;;;;;;;4927894;29;20036;-84
2021/10/12 09:27:57;;;;;;;12.63;3.17;;;;;;;;;;4936428;29;20724;-83
2021/10/12 09:30:28;;;;;;;10.63;3.15;;;;;;;;;;4930122;29;20047;-82
2021/10/12 09:33:03;;;;;;;12.55;2.97;;;;;;;;;;4935101;29;20028;-84
2021/10/12 09:35:29;;;;;;;8.93;2.97;;;;;;;;;;4921563;29;20051;-82
2021/10/12 09:38:10;;;;;;;12.15;3.53;;;;;;;;;;4920230;29;20632;-82
2021/10/12 09:40:38;;;;;;;10.57;3.55;;;;;;;;;;4934682;29;20035;-84
2021/10/12 09:43:04;;;;;;;11.73;3.50;;;;;;;;;;4921564;29;20724;-85
2021/10/12 09:45:41;;;;;;;8.93;3.38;;;;;;;;;;4918890;29;20092;-84
2021/10/12 09:48:30;;;;;;;9.30;3.30;;;;;;;;;;4919998;29;20083;-84
2021/10/12 09:51:11;;;;;;;7.85;3.05;;;;;;;;;;4918866;29;20050;-83
2021/10/12 09:53:38;;;;;;;8.60;2.92;;;;;;;;;;4919982;29;20036;-84
2021/10/12 09:56:05;;;;;;;8.40;2.13;;;;;;;;;;4900425;29;20047;-84
2021/10/12 09:58:34;;;;;;;5.60;2.10;;;;;;;;;;4936437;29;20039;-84
2021/10/12 10:01:03;;;;;;;5.47;1.85;;;;;;;;;;4914501;29;20034;-82
2021/10/12 10:03:29;;;;;;;6.32;1.63;;;;;;;;;;4918407;29;20039;-82
2021/10/12 10:06:08;;;;;;;3.75;1.27;;;;;;;;;;4918475;29;20031;-83
2021/10/12 10:08:37;;;;;;;5.30;1.23;;;;;;;;;;4919830;29;20051;-84
2021/10/12 10:11:04;;;;;;;3.42;1.20;;;;;;;;;;4921184;29;20709;-83
2021/10/12 10:13:32;;;;;;;6.43;1.30;;;;;;;;;;4938031;29;20023;-83
2021/10/12 10:15:58;;;;;;;3.08;1.05;;;;;;;;;;4921492;29;20871;-82
2021/10/12 10:18:24;;;;;;;5.28;1.00;;;;;;;;;;4922110;29;20032;-83
2021/10/12 10:20:53;;;;;;;4.95;0.98;;;;;;;;;;4922768;29;20039;-83
2021/10/12 10:23:54;;;;;;;4.03;1.25;;;;;;;;;;4920837;29;20505;-83
2021/10/12 10:26:24;;;;;;;3.42;1.30;;;;;;;;;;4933253;29;20483;-82
2021/10/12 10:28:51;;;;;;;3.78;0.95;;;;;;;;;;4939286;29;20038;-84
2021/10/12 10:31:17;;;;;;;3.90;1.92;;;;;;;;;;4920799;29;20483;-83
2021/10/12 10:33:43;;;;;;;7.30;1.65;;;;;;;;;;4930449;29;20033;-83
2021/10/12 10:36:10;;;;;;;4.95;1.80;;;;;;;;;;4886277;29;20031;-83
2021/10/12 10:38:46;;;;;;;4.75;1.60;;;;;;;;;;4918068;29;20039;-83
2021/10/12 10:41:11;;;;;;;6.13;2.30;;;;;;;;;;4931384;29;20036;-86
2021/10/12 10:44:05;;;;;;;5.00;1.73;;;;;;;;;;4929730;29;20080;-82
2021/10/12 10:46:36;;;;;;;6.32;1.40;;;;;;;;;;4917338;29;20054;-83
2021/10/12 10:49:21;;;;;;;3.97;1.20;;;;;;;;;;4950045;28;20386;-86
2021/10/12 10:51:48;;;;;;;5.35;1.48;;;;;;;;;;4919814;29;20038;-82
2021/10/12 10:54:36;;;;;;;2.92;1.10;;;;;;;;;;4936853;29;20087;-82
2021/10/12 10:57:11;;;;;;;3.67;1.10;;;;;;;;;;4930693;29;20094;-86
2021/10/12 10:59:37;;;;;;;5.82;1.38;;;;;;;;;;4919060;29;20502;-83
2021/10/12 11:02:22;;;;;;;5.22;1.20;;;;;;;;;;4936150;29;20059;-84
2021/10/12 11:04:49;;;;;;;3.40;1.30;;;;;;;;;;4937146;29;20039;-83
2021/10/12 11:07:21;;;;;;;3.90;1.20;;;;;;;;;;4903353;29;20082;-83
2021/10/12 11:09:48;;;;;;;4.93;1.00;;;;;;;;;;4938119;29;20044;-86
2021/10/12 11:12:25;;;;;;;2.13;0.80;;;;;;;;;;4937658;29;20032;-86
2021/10/12 11:14:53;;;;;;;4.47;0.90;;;;;;;;;;4942401;29;20036;-86
2021/10/12 11:17:18;;;;;;;4.18;0.90;;;;;;;;;;4919093;29;20087;-83
2021/10/12 11:20:19;;;;;;;3.13;1.00;;;;;;;;;;4919330;29;20039;-86
2021/10/12 11:22:46;;;;;;;6.07;0.88;;;;;;;;;;4876419;29;20124;-84
2021/10/12 11:25:13;;;;;;;4.72;1.00;;;;;;;;;;4906159;29;20049;-85
2021/10/12 11:27:41;;;;;;;2.75;0.77;;;;;;;;;;4899658;29;20047;-82
2021/10/12 11:30:09;;;;;;;2.67;1.00;;;;;;;;;;4919267;29;20051;-82
2021/10/12 11:32:35;;;;;;;3.50;0.90;;;;;;;;;;4933805;29;20067;-83
2021/10/12 11:35:08;;;;;;;8.68;1.08;;;;;;;;;;4916701;29;20071;-82
2021/10/12 11:37:34;;;;;;;3.45;0.80;;;;;;;;;;4919054;29;20036;-83
2021/10/12 11:40:21;;;;;;;4.97;1.23;;;;;;;;;;4886860;29;20032;-84
2021/10/12 11:42:46;;;;;;;3.05;1.00;;;;;;;;;;4915207;29;20027;-83
2021/10/12 11:45:12;;;;;;;4.43;1.00;;;;;;;;;;4922551;29;20186;-84
2021/10/12 11:47:39;;;;;;;1.33;0.80;;;;;;;;;;4932723;29;20048;-82
2021/10/12 11:50:12;;;;;;;3.78;1.00;;;;;;;;;;4917617;29;20024;-83
2021/10/12 11:52:38;;;;;;;3.40;0.75;;;;;;;;;;4937360;29;20043;-84
2021/10/12 11:55:08;;;;;;;2.90;0.70;;;;;;;;;;4930230;29;20051;-86
2021/10/12 11:57:34;;;;;;;3.45;0.90;;;;;;;;;;4931896;29;20035;-85
2021/10/12 12:00:00;;;;;;;2.45;0.90;;;;;;;;;;4937880;29;20704;-82
2021/10/12 12:02:29;;;;;;;3.53;0.95;;;;;;;;;;4914261;29;20189;-83
2021/10/12 12:04:59;;;;;;;3.30;1.10;;;;;;;;;;4925671;29;20020;-84
2021/10/12 12:07:26;;;;;;;5.05;1.10;;;;;;;;;;4919690;29;20040;-82
2021/10/12 12:09:52;;;;;;;4.57;1.00;;;;;;;;;;4913486;29;20570;-86
2021/10/12 12:12:19;;;;;;;3.67;0.95;;;;;;;;;;4933893;29;20023;-87
2021/10/12 12:14:49;;;;;;;3.00;1.17;;;;;;;;;;4910556;29;20788;-83
2021/10/12 12:17:19;;;;;;;2.35;1.00;;;;;;;;;;4917424;29;20333;-83
2021/10/12 12:19:52;;;;;;;2.63;1.10;;;;;;;;;;4911140;29;20464;-87
2021/10/12 12:22:26;;;;;;;2.25;1.10;;;;;;;;;;4917647;29;20040;-84
2021/10/12 12:25:07;;;;;;;2.22;1.00;;;;;;;;;;4935862;29;20040;-83
2021/10/12 12:27:50;;;;;;;4.32;1.25;;;;;;;;;;4930075;29;20074;-82
2021/10/12 12:30:15;;;;;;;4.13;1.10;;;;;;;;;;4931614;29;20032;-84
2021/10/12 12:32:54;;;;;;;2.45;0.95;;;;;;;;;;4905634;29;20031;-86
2021/10/12 12:35:20;;;;;;;2.65;0.90;;;;;;;;;;4920606;29;20118;-86
2021/10/12 12:37:56;;;;;;;3.47;1.02;;;;;;;;;;4889959;29;20142;-86
2021/10/12 12:40:26;;;;;;;1.67;0.90;;;;;;;;;;4924265;29;20042;-83
2021/10/12 12:42:52;;;;;;;5.78;1.15;;;;;;;;;;4923907;29;20031;-86
2021/10/12 12:45:22;;;;;;;4.07;0.90;;;;;;;;;;4910445;29;20540;-86
2021/10/12 12:47:59;;;;;;;1.40;0.70;;;;;;;;;;4936619;29;20106;-83
2021/10/12 12:50:37;;;;;;;1.60;0.70;;;;;;;;;;4945721;29;20035;-83
2021/10/12 12:53:05;;;;;;;1.75;0.52;;;;;;;;;;4923065;29;20532;-86
2021/10/12 12:55:34;;;;;;;4.10;0.70;;;;;;;;;;4941528;28;20109;-83
2021/10/12 12:57:59;;;;;;;1.45;0.47;;;;;;;;;;4937372;29;20134;-82
2021/10/12 13:00:25;;;;;;;3.45;0.50;;;;;;;;;;4928164;29;20102;-84
2021/10/12 13:02:55;;;;;;;2.40;0.50;;;;;;;;;;4907728;29;20042;-83
2021/10/12 13:05:23;;;;;;;5.75;0.60;;;;;;;;;;4923000;29;20114;-83
2021/10/12 13:07:51;;;;;;;2.35;0.60;;;;;;;;;;4906939;29;20755;-82
2021/10/12 13:10:22;;;;;;;5.65;0.70;;;;;;;;;;4908508;29;20065;-83
2021/10/12 13:12:48;;;;;;;1.98;0.50;;;;;;;;;;4905279;29;20601;-84
2021/10/12 13:15:14;;;;;;;2.92;0.50;;;;;;;;;;4934550;29;20032;-84
2021/10/12 13:17:40;;;;;;;1.58;0.50;;;;;;;;;;4929957;29;20546;-84
2021/10/12 13:20:10;;;;;;;2.10;0.68;;;;;;;;;;4927492;29;20035;-84
2021/10/12 13:22:37;;;;;;;1.63;0.50;;;;;;;;;;4915260;29;20047;-83
2021/10/12 13:25:22;;;;;;;2.65;0.57;;;;;;;;;;4907374;29;20024;-83
2021/10/12 13:27:48;;;;;;;3.58;0.63;;;;;;;;;;4925047;29;20036;-85
2021/10/12 13:30:14;;;;;;;1.95;0.40;;;;;;;;;;4918974;29;20906;-83
2021/10/12 13:32:41;;;;;;;2.42;0.50;;;;;;;;;;4921716;29;20126;-84
2021/10/12 13:35:08;;;;;;;2.42;0.60;;;;;;;;;;4930203;29;20036;-84
2021/10/12 13:37:34;;;;;;;4.07;0.60;;;;;;;;;;4907090;29;20123;-82
2021/10/12 13:40:02;;;;;;;4.35;0.43;;;;;;;;;;4935973;29;20036;-84
2021/10/12 13:42:27;;;;;;;2.70;0.47;;;;;;;;;;4919478;29;20102;-87
2021/10/12 13:44:53;;;;;;;1.40;0.50;;;;;;;;;;4929738;29;20047;-82
2021/10/12 13:47:19;;;;;;;4.30;0.75;;;;;;;;;;4925365;29;20031;-83
2021/10/12 13:49:45;;;;;;;5.93;0.52;;;;;;;;;;4903999;29;20035;-84
2021/10/12 13:52:11;;;;;;;4.22;0.60;;;;;;;;;;4925634;29;20035;-86
2021/10/12 13:54:39;;;;;;;2.00;0.40;;;;;;;;;;4904526;29;20055;-84
2021/10/12 13:57:05;;;;;;;6.53;0.73;;;;;;;;;;4944230;29;20035;-83
2021/10/12 14:00:08;;;;;;;3.17;0.82;;;;;;;;;;4934455;29;20124;-86
2021/10/12 14:02:51;;;;;;;4.13;0.50;;;;;;;;;;4926061;29;20045;-86
2021/10/12 14:05:16;;;;;;;7.90;0.57;;;;;;;;;;4935465;29;20027;-84
2021/10/12 14:07:48;;;;;;;5.88;0.57;;;;;;;;;;4917340;29;20044;-82
2021/10/12 14:10:20;;;;;;;8.73;1.13;;;;;;;;;;4932087;29;20044;-83
2021/10/12 14:12:48;;;;;;;3.13;0.45;;;;;;;;;;4944046;29;20390;-83
2021/10/12 14:15:19;;;;;;;4.13;0.60;;;;;;;;;;4924548;29;20086;-82
2021/10/12 14:17:51;;;;;;;7.07;0.60;;;;;;;;;;4920320;29;20171;-82
2021/10/12 14:20:20;;;;;;;2.38;0.47;;;;;;;;;;4921319;29;20032;-83
2021/10/12 14:22:50;;;;;;;3.03;0.70;;;;;;;;;;4913588;29;20064;-82
2021/10/12 14:25:22;;;;;;;3.28;0.60;;;;;;;;;;4931865;29;20438;-82
2021/10/12 14:27:52;;;;;;;2.27;0.60;;;;;;;;;;4938959;29;20058;-83
2021/10/12 14:30:20;;;;;;;3.08;0.57;;;;;;;;;;4923778;29;20027;-83
2021/10/12 14:32:52;;;;;;;6.35;0.70;;;;;;;;;;4939618;29;20087;-84
2021/10/12 14:35:23;;;;;;;4.30;0.98;;;;;;;;;;4905807;29;20030;-83
2021/10/12 14:37:54;;;;;;;2.78;0.63;;;;;;;;;;4933242;29;20039;-83
2021/10/12 14:40:20;;;;;;;2.80;0.52;;;;;;;;;;4925077;29;20130;-86
2021/10/12 14:42:55;;;;;;;5.00;0.68;;;;;;;;;;4906290;29;20043;-84
2021/10/12 14:45:25;;;;;;;4.90;0.57;;;;;;;;;;4904694;29;20045;-84